Time;durP1;ratioP1;P1;durP2;ratioP2;P2;SDS_P1;SDS_P2;PMS_P1;PMS_P2;Temp;Humidity;BMP_temperature;BMP_pressure;BME280_temperature;BME280_humidity;BME280_pressure;Samples;Min_cycle;Max_cycle;Signal;HPM_P1;HPM_P2
2022/05/19 00:02:09;;;;;;;15.40;7.25;;;16.60;99.90;;;;;;5078293;28;20043;-75
2022/05/19 00:04:35;;;;;;;15.27;7.57;;;16.50;99.90;;;;;;5061651;28;20059;-75
2022/05/19 00:07:01;;;;;;;12.30;8.20;;;16.50;99.90;;;;;;5061492;28;20044;-75
2022/05/19 00:09:27;;;;;;;14.35;7.82;;;16.50;99.90;;;;;;5078487;28;20608;-75
2022/05/19 00:11:55;;;;;;;15.60;8.48;;;16.40;99.90;;;;;;5061659;28;20127;-75
2022/05/19 00:14:21;;;;;;;16.33;7.90;;;16.40;99.90;;;;;;5078093;28;20043;-75
2022/05/19 00:16:48;;;;;;;11.00;7.05;;;16.30;99.90;;;;;;5061666;28;20502;-76
2022/05/19 00:19:14;;;;;;;15.25;7.80;;;16.30;99.90;;;;;;5077970;28;20847;-75
2022/05/19 00:21:41;;;;;;;12.77;6.78;;;16.30;99.90;;;;;;5061355;28;20071;-75
2022/05/19 00:24:08;;;;;;;12.95;7.68;;;16.30;99.90;;;;;;5094824;28;20044;-75
2022/05/19 00:26:34;;;;;;;15.18;8.57;;;16.40;99.90;;;;;;5061465;28;20040;-75
2022/05/19 00:28:59;;;;;;;12.20;7.57;;;16.40;99.90;;;;;;5077881;28;20054;-75
2022/05/19 00:31:26;;;;;;;16.58;8.63;;;16.40;99.90;;;;;;5061159;28;20427;-75
2022/05/19 00:33:52;;;;;;;11.70;7.85;;;16.40;99.90;;;;;;5061319;28;20078;-75
2022/05/19 00:36:20;;;;;;;13.88;8.10;;;16.30;99.90;;;;;;5077666;28;20495;-75
2022/05/19 00:38:46;;;;;;;14.07;7.75;;;16.30;99.90;;;;;;5060632;28;20043;-75
2022/05/19 00:41:14;;;;;;;13.88;8.65;;;16.40;99.90;;;;;;5077613;28;20050;-75
2022/05/19 00:43:45;;;;;;;17.88;9.13;;;16.30;99.90;;;;;;5077878;28;20368;-75
2022/05/19 00:46:18;;;;;;;14.25;9.40;;;16.40;99.90;;;;;;5060919;28;20048;-75
2022/05/19 00:49:02;;;;;;;17.30;10.55;;;16.30;99.90;;;;;;5077477;28;20126;-74
2022/05/19 00:51:36;;;;;;;19.15;10.98;;;16.30;99.90;;;;;;5077378;28;20036;-75
2022/05/19 00:54:06;;;;;;;19.08;11.38;;;16.30;99.90;;;;;;5077456;28;20517;-75
2022/05/19 00:56:53;;;;;;;15.07;9.75;;;16.30;99.90;;;;;;5060703;28;20036;-75
2022/05/19 00:59:29;;;;;;;19.98;11.88;;;16.20;99.90;;;;;;5077358;28;20051;-75
2022/05/19 01:01:55;;;;;;;17.00;10.20;;;16.20;99.90;;;;;;5077238;28;20040;-75
2022/05/19 01:04:49;;;;;;;16.77;10.95;;;16.20;99.90;;;;;;5043991;28;20040;-75
2022/05/19 01:07:20;;;;;;;19.27;11.27;;;16.10;99.90;;;;;;5071207;28;20093;-75
2022/05/19 01:09:47;;;;;;;17.25;10.18;;;16.10;99.90;;;;;;5060358;28;20051;-75
2022/05/19 01:12:12;;;;;;;19.85;11.52;;;16.10;99.90;;;;;;5077060;28;20056;-75
2022/05/19 01:14:39;;;;;;;20.55;11.98;;;16.10;99.90;;;;;;5077073;28;20040;-75
2022/05/19 01:17:06;;;;;;;20.58;11.95;;;16.00;99.90;;;;;;5076786;28;20071;-75
2022/05/19 01:19:35;;;;;;;18.40;10.98;;;16.10;99.90;;;;;;5060635;28;20511;-74
2022/05/19 01:22:08;;;;;;;20.63;10.35;;;16.00;99.90;;;;;;5077197;28;20134;-75
2022/05/19 01:24:47;;;;;;;16.00;10.85;;;16.00;99.90;;;;;;5077132;28;20109;-75
2022/05/19 01:27:12;;;;;;;15.88;10.20;;;16.00;99.90;;;;;;5077131;28;20392;-75
2022/05/19 01:29:39;;;;;;;18.77;11.13;;;16.00;99.90;;;;;;5076698;28;20082;-75
2022/05/19 01:32:05;;;;;;;19.20;11.10;;;15.90;99.90;;;;;;5059869;28;20062;-75
2022/05/19 01:34:33;;;;;;;19.38;10.88;;;15.90;99.90;;;;;;5060117;28;20035;-75
2022/05/19 01:36:59;;;;;;;20.70;10.82;;;15.90;99.90;;;;;;5060095;28;20050;-75
2022/05/19 01:39:28;;;;;;;17.63;10.38;;;15.90;99.90;;;;;;5059828;28;20040;-75
2022/05/19 01:42:36;;;;;;;17.30;11.50;;;15.90;99.90;;;;;;5076757;28;20052;-75
2022/05/19 01:45:36;;;;;;;20.73;11.98;;;15.90;99.90;;;;;;5076699;28;20475;-75
2022/05/19 01:48:19;;;;;;;21.70;13.07;;;16.00;99.90;;;;;;5059978;28;20043;-75
2022/05/19 01:51:06;;;;;;;25.95;13.57;;;15.80;99.90;;;;;;5076313;28;20044;-75
2022/05/19 01:53:48;;;;;;;23.73;12.73;;;15.80;99.90;;;;;;5060177;28;20069;-75
2022/05/19 01:56:27;;;;;;;25.02;13.68;;;15.90;99.90;;;;;;5093097;28;20047;-75
2022/05/19 01:59:12;;;;;;;22.98;13.65;;;15.80;99.90;;;;;;5076214;28;20032;-75
2022/05/19 02:01:42;;;;;;;23.38;14.23;;;15.80;99.90;;;;;;5076450;28;20047;-75
2022/05/19 02:04:38;;;;;;;29.17;14.23;;;15.80;99.90;;;;;;5059739;28;20086;-75
2022/05/19 02:07:07;;;;;;;24.27;14.45;;;15.80;99.90;;;;;;5053233;28;20047;-75
2022/05/19 02:09:56;;;;;;;23.10;14.30;;;15.80;99.90;;;;;;5075950;28;20123;-75
2022/05/19 02:12:22;;;;;;;23.83;14.77;;;15.80;99.90;;;;;;5075860;28;20079;-75
2022/05/19 02:14:54;;;;;;;26.20;15.07;;;15.70;99.90;;;;;;5059421;28;20036;-75
2022/05/19 02:17:21;;;;;;;27.30;14.13;;;15.70;99.90;;;;;;5075700;28;20059;-75
2022/05/19 02:19:51;;;;;;;24.58;15.48;;;15.70;99.90;;;;;;5076024;28;20047;-75
2022/05/19 02:22:19;;;;;;;24.13;14.02;;;15.60;99.90;;;;;;5059197;28;20040;-75
2022/05/19 02:24:58;;;;;;;30.10;15.95;;;15.60;99.90;;;;;;5075668;28;20123;-75
2022/05/19 02:27:42;;;;;;;23.70;15.35;;;15.70;99.90;;;;;;5075614;28;20082;-75
2022/05/19 02:30:11;;;;;;;27.90;14.73;;;15.60;99.90;;;;;;5075784;28;20040;-75
2022/05/19 02:32:37;;;;;;;30.77;15.82;;;15.60;99.90;;;;;;5075452;28;20044;-75
2022/05/19 02:35:08;;;;;;;31.02;15.07;;;15.60;99.90;;;;;;5075425;28;20453;-75
2022/05/19 02:37:34;;;;;;;25.92;16.02;;;15.60;99.90;;;;;;5042375;28;20040;-75
2022/05/19 02:40:00;;;;;;;26.35;14.63;;;15.70;99.90;;;;;;5058732;28;20036;-75
2022/05/19 02:42:26;;;;;;;21.60;13.95;;;15.60;99.90;;;;;;5058782;28;20047;-75
2022/05/19 02:44:52;;;;;;;25.60;15.40;;;15.60;99.90;;;;;;5075309;28;20051;-75
2022/05/19 02:47:17;;;;;;;25.80;15.20;;;15.60;99.90;;;;;;5058970;28;20048;-76
2022/05/19 02:49:43;;;;;;;20.40;14.52;;;15.50;99.90;;;;;;5058721;28;20122;-75
2022/05/19 02:52:09;;;;;;;25.95;15.13;;;15.60;99.90;;;;;;5058375;28;20043;-75
2022/05/19 02:54:34;;;;;;;26.17;14.23;;;15.60;99.90;;;;;;5075384;28;20047;-75
2022/05/19 02:57:00;;;;;;;22.27;13.57;;;15.60;99.90;;;;;;5075085;28;20115;-75
2022/05/19 02:59:26;;;;;;;24.55;14.90;;;15.60;99.90;;;;;;5058573;28;20044;-75
2022/05/19 03:01:52;;;;;;;26.40;13.90;;;15.50;99.90;;;;;;5057894;28;20047;-75
2022/05/19 03:04:18;;;;;;;25.33;13.70;;;15.50;99.90;;;;;;5058679;28;20043;-74
2022/05/19 03:06:43;;;;;;;26.10;14.32;;;15.50;99.90;;;;;;5075488;28;20048;-75
2022/05/19 03:09:09;;;;;;;30.17;15.30;;;15.50;99.90;;;;;;5058345;28;20043;-75
2022/05/19 03:11:35;;;;;;;24.80;15.30;;;15.60;99.90;;;;;;5041638;28;20048;-74
2022/05/19 03:14:01;;;;;;;26.50;15.70;;;15.50;99.90;;;;;;5074958;28;20368;-75
2022/05/19 03:16:27;;;;;;;28.42;15.57;;;15.50;99.90;;;;;;5058224;28;20075;-75
2022/05/19 03:18:53;;;;;;;28.63;15.23;;;15.50;99.90;;;;;;5074753;28;20056;-74
2022/05/19 03:21:19;;;;;;;24.67;13.48;;;15.50;99.90;;;;;;5058223;28;20070;-75
2022/05/19 03:23:45;;;;;;;23.25;14.18;;;15.50;99.90;;;;;;5075194;28;20036;-75
2022/05/19 03:26:10;;;;;;;35.50;14.93;;;15.50;99.90;;;;;;5041575;28;20123;-75
2022/05/19 03:28:37;;;;;;;25.90;14.77;;;15.50;99.90;;;;;;5058183;28;20098;-75
2022/05/19 03:31:02;;;;;;;23.88;14.52;;;15.50;99.90;;;;;;5074687;28;20036;-75
2022/05/19 03:33:28;;;;;;;25.83;15.45;;;15.50;99.90;;;;;;5058042;28;20476;-75
2022/05/19 03:36:02;;;;;;;27.52;14.88;;;15.50;99.90;;;;;;5058088;28;20119;-75
2022/05/19 03:38:28;;;;;;;27.23;14.77;;;15.60;99.90;;;;;;5058331;28;20058;-75
2022/05/19 03:40:54;;;;;;;29.55;15.73;;;15.50;99.90;;;;;;5057965;28;20128;-75
2022/05/19 03:43:20;;;;;;;24.42;14.50;;;15.50;99.90;;;;;;5041483;28;20036;-75
2022/05/19 03:45:46;;;;;;;26.00;15.63;;;15.50;99.90;;;;;;5057936;28;20047;-75
2022/05/19 03:48:12;;;;;;;24.90;14.85;;;15.50;99.90;;;;;;5058381;28;20530;-75
2022/05/19 03:50:38;;;;;;;28.45;15.07;;;15.40;99.90;;;;;;5057963;28;20043;-75
2022/05/19 03:53:07;;;;;;;27.17;14.00;;;15.40;99.90;;;;;;5074547;28;20115;-75
2022/05/19 03:55:33;;;;;;;24.30;13.98;;;15.40;99.90;;;;;;5041656;28;20044;-75
2022/05/19 03:57:58;;;;;;;30.10;16.52;;;15.40;99.90;;;;;;5074562;28;20097;-75
2022/05/19 04:00:24;;;;;;;29.50;15.38;;;15.40;99.90;;;;;;5041225;28;20398;-75
2022/05/19 04:02:51;;;;;;;26.38;14.88;;;15.50;99.90;;;;;;5058154;28;20510;-75
2022/05/19 04:05:16;;;;;;;27.48;15.10;;;15.50;99.90;;;;;;5074472;28;20044;-75
2022/05/19 04:07:42;;;;;;;28.67;15.95;;;15.50;99.90;;;;;;5057838;28;20036;-75
2022/05/19 04:10:10;;;;;;;24.90;14.88;;;15.50;99.90;;;;;;5041093;28;20069;-75
2022/05/19 04:12:36;;;;;;;28.83;16.42;;;15.50;99.90;;;;;;5074610;28;20093;-75
2022/05/19 04:15:03;;;;;;;25.30;15.02;;;15.50;99.90;;;;;;5078348;28;20028;-75
2022/05/19 04:17:33;;;;;;;25.50;15.52;;;15.50;99.90;;;;;;5061734;28;20545;-75
2022/05/19 04:20:00;;;;;;;28.23;15.70;;;15.50;99.90;;;;;;5078038;28;20040;-75
2022/05/19 04:22:26;;;;;;;28.50;14.57;;;15.50;99.90;;;;;;5061348;28;20040;-75
2022/05/19 04:24:52;;;;;;;30.65;15.57;;;15.50;99.90;;;;;;5044620;28;20047;-75
2022/05/19 04:27:17;;;;;;;32.28;17.63;;;15.60;99.90;;;;;;5044636;28;20075;-75
2022/05/19 04:29:43;;;;;;;30.48;16.98;;;15.60;99.90;;;;;;5061321;28;20509;-75
2022/05/19 04:32:09;;;;;;;30.88;17.50;;;15.60;99.90;;;;;;5061124;28;20040;-75
2022/05/19 04:34:35;;;;;;;29.98;15.35;;;15.60;99.90;;;;;;5061469;28;20039;-75
2022/05/19 04:37:00;;;;;;;28.50;16.40;;;15.70;99.90;;;;;;5078018;28;20040;-75
2022/05/19 04:39:26;;;;;;;27.30;16.63;;;16.10;99.90;;;;;;5061335;28;20039;-75
2022/05/19 04:41:52;;;;;;;31.60;16.30;;;15.80;99.90;;;;;;5077689;28;20122;-75
2022/05/19 04:44:18;;;;;;;29.83;16.35;;;15.90;99.90;;;;;;5044362;28;20039;-75
2022/05/19 04:46:44;;;;;;;33.88;17.42;;;15.90;99.90;;;;;;5060972;28;20051;-75
2022/05/19 04:49:10;;;;;;;26.08;17.48;;;16.10;99.90;;;;;;5061192;28;20426;-75
2022/05/19 04:51:35;;;;;;;28.95;16.33;;;16.20;99.90;;;;;;5077623;28;20047;-75
2022/05/19 04:54:01;;;;;;;32.15;17.17;;;16.40;99.90;;;;;;5060835;28;20039;-75
2022/05/19 04:56:27;;;;;;;29.27;16.08;;;16.40;99.90;;;;;;5044437;28;20593;-76
2022/05/19 04:58:52;;;;;;;26.95;16.63;;;16.50;99.90;;;;;;5060740;28;20036;-76
2022/05/19 05:01:18;;;;;;;28.80;16.95;;;16.90;99.90;;;;;;5077517;28;20032;-77
2022/05/19 05:03:44;;;;;;;24.95;15.25;;;16.60;99.90;;;;;;5060837;28;20035;-77
2022/05/19 05:06:09;;;;;;;25.98;15.88;;;16.50;99.90;;;;;;5044367;28;20047;-77
2022/05/19 05:08:35;;;;;;;27.75;15.82;;;16.60;99.90;;;;;;5077204;28;20044;-77
2022/05/19 05:11:01;;;;;;;28.98;16.55;;;16.60;99.90;;;;;;5043775;28;20506;-77
2022/05/19 05:13:27;;;;;;;28.20;16.13;;;16.60;99.90;;;;;;5077153;28;20028;-76
2022/05/19 05:15:52;;;;;;;26.58;16.17;;;16.60;99.90;;;;;;5077069;28;20101;-76
2022/05/19 05:18:18;;;;;;;31.23;17.05;;;16.70;99.90;;;;;;5043542;28;20084;-76
2022/05/19 05:20:44;;;;;;;30.10;15.70;;;16.70;99.90;;;;;;5076982;28;20407;-76
2022/05/19 05:23:10;;;;;;;25.70;16.52;;;16.90;99.90;;;;;;5060197;28;20126;-76
2022/05/19 05:25:36;;;;;;;27.40;16.63;;;16.80;99.90;;;;;;5060213;28;20131;-76
2022/05/19 05:28:03;;;;;;;21.02;14.25;;;17.10;99.90;;;;;;5043487;28;20127;-76
2022/05/19 05:30:29;;;;;;;25.95;14.93;;;17.20;99.90;;;;;;5060295;28;20048;-76
2022/05/19 05:32:54;;;;;;;28.65;14.65;;;17.10;99.90;;;;;;5060302;28;20455;-77
2022/05/19 05:35:20;;;;;;;20.67;12.43;;;17.20;99.90;;;;;;5060039;28;20038;-74
2022/05/19 05:37:46;;;;;;;21.38;13.38;;;17.30;99.90;;;;;;5060244;28;20541;-73
2022/05/19 05:40:12;;;;;;;20.30;12.57;;;17.50;99.90;;;;;;5059864;28;20043;-73
2022/05/19 05:42:39;;;;;;;21.60;12.00;;;17.50;99.90;;;;;;5060006;28;20065;-73
2022/05/19 05:45:08;;;;;;;17.33;12.00;;;17.60;99.90;;;;;;5076463;28;20121;-73
2022/05/19 05:47:34;;;;;;;21.50;13.20;;;17.70;99.90;;;;;;5060038;28;20490;-75
2022/05/19 05:49:59;;;;;;;22.30;12.10;;;17.70;99.90;;;;;;5076401;28;20047;-75
2022/05/19 05:52:26;;;;;;;18.98;10.68;;;17.80;99.90;;;;;;5077881;28;20098;-75
2022/05/19 05:54:53;;;;;;;20.25;11.20;;;18.10;99.90;;;;;;5076593;28;20045;-77
2022/05/19 05:57:19;;;;;;;22.80;11.45;;;18.40;99.90;;;;;;5060046;28;20118;-76
2022/05/19 05:59:45;;;;;;;19.10;10.55;;;18.60;99.90;;;;;;5043352;28;20036;-75
2022/05/19 06:02:11;;;;;;;14.93;9.43;;;18.80;99.90;;;;;;5042936;28;20040;-79
2022/05/19 06:04:37;;;;;;;16.55;10.18;;;19.10;99.90;;;;;;5059615;28;20040;-75
2022/05/19 06:07:03;;;;;;;18.92;10.52;;;19.20;99.90;;;;;;5075981;28;20044;-75
2022/05/19 06:09:30;;;;;;;15.48;9.43;;;19.50;99.90;;;;;;5076121;28;20047;-77
2022/05/19 06:11:55;;;;;;;16.05;9.15;;;19.60;99.90;;;;;;5059330;28;20048;-74
2022/05/19 06:14:22;;;;;;;12.85;7.63;;;19.80;99.90;;;;;;5075653;28;20047;-77
2022/05/19 06:16:48;;;;;;;13.88;8.45;;;20.00;99.90;;;;;;5059299;28;20080;-79
2022/05/19 06:19:14;;;;;;;10.57;7.15;;;20.00;99.90;;;;;;5042462;28;20079;-78
2022/05/19 06:21:42;;;;;;;14.68;7.38;;;20.00;99.90;;;;;;5042518;28;20040;-81
2022/05/19 06:24:09;;;;;;;10.05;6.80;;;;;;;;;;5059054;28;20075;-77
2022/05/19 06:26:37;;;;;;;11.05;6.82;;;20.10;99.90;;;;;;5075631;28;20097;-78
2022/05/19 06:29:03;;;;;;;10.93;6.72;;;20.30;99.90;;;;;;5075770;28;20550;-76
2022/05/19 06:31:31;;;;;;;13.32;7.05;;;20.40;99.90;;;;;;5058816;28;20163;-77
2022/05/19 06:33:58;;;;;;;9.25;6.15;;;20.50;99.90;;;;;;5075395;28;20102;-80
2022/05/19 06:36:24;;;;;;;13.65;7.15;;;20.30;99.90;;;;;;5058385;28;20453;-76
2022/05/19 06:38:49;;;;;;;9.70;4.88;;;20.40;99.90;;;;;;5058930;28;20046;-75
2022/05/19 06:43:59;;;;;;;12.80;6.10;;;20.50;99.90;;;;;;5061162;28;20040;-75
2022/05/19 06:46:26;;;;;;;12.27;6.78;;;;;;;;;;5058888;28;20390;-76
2022/05/19 06:48:52;;;;;;;10.48;6.53;;;20.80;99.90;;;;;;5059006;28;20075;-76
2022/05/19 06:51:18;;;;;;;9.95;5.93;;;21.10;99.90;;;;;;5058475;28;20068;-75
2022/05/19 06:53:43;;;;;;;7.43;5.13;;;21.00;99.90;;;;;;5075489;28;20102;-75
2022/05/19 06:56:10;;;;;;;9.40;5.68;;;21.10;99.90;;;;;;5058790;28;20071;-74
2022/05/19 06:58:36;;;;;;;9.40;5.85;;;21.20;99.90;;;;;;5075400;28;20560;-75
2022/05/19 07:01:02;;;;;;;8.98;5.63;;;21.40;99.90;;;;;;5058754;28;20539;-75
2022/05/19 07:03:28;;;;;;;11.95;5.80;;;21.40;99.90;;;;;;5074999;28;20044;-75
2022/05/19 07:05:54;;;;;;;13.90;5.40;;;21.40;99.90;;;;;;5058427;28;20094;-75
2022/05/19 07:08:20;;;;;;;10.15;5.85;;;21.40;99.90;;;;;;5075060;28;20085;-75
2022/05/19 07:10:46;;;;;;;9.68;5.18;;;21.40;99.90;;;;;;5075288;28;20142;-75
2022/05/19 07:13:12;;;;;;;9.07;5.00;;;21.30;99.90;;;;;;5041650;28;20040;-75
2022/05/19 07:15:38;;;;;;;11.13;5.28;;;21.30;99.90;;;;;;5058334;28;20040;-75
2022/05/19 07:18:04;;;;;;;7.88;5.00;;;21.10;99.90;;;;;;5074810;28;20048;-75
2022/05/19 07:20:47;;;;;;;13.35;5.45;;;20.90;99.90;;;;;;5041807;28;20550;-75
2022/05/19 07:23:25;;;;;;;6.63;4.63;;;20.80;99.90;;;;;;5043963;28;20051;-75
2022/05/19 07:25:51;;;;;;;9.57;5.43;;;20.70;99.90;;;;;;5058296;28;20479;-75
2022/05/19 07:28:21;;;;;;;7.78;5.10;;;20.60;99.90;;;;;;5057968;28;20036;-75
2022/05/19 07:30:47;;;;;;;11.30;5.73;;;20.50;99.90;;;;;;5075025;28;20044;-75
2022/05/19 07:33:15;;;;;;;8.90;4.80;;;20.40;99.90;;;;;;5074653;28;20080;-75
2022/05/19 07:35:42;;;;;;;7.85;5.07;;;20.40;99.90;;;;;;5074949;28;20047;-75
2022/05/19 07:38:07;;;;;;;7.43;4.90;;;20.30;99.90;;;;;;5058177;28;20044;-75
2022/05/19 07:40:33;;;;;;;8.35;5.25;;;20.30;99.90;;;;;;5074657;28;20351;-75
2022/05/19 07:43:35;;;;;;;7.75;5.60;;;20.30;99.90;;;;;;5074940;28;20089;-75
2022/05/19 07:45:44;;;;;;;8.07;5.53;;;20.30;99.90;;;;;;5060698;28;20047;-75
2022/05/19 07:48:10;;;;;;;9.38;5.07;;;20.30;99.90;;;;;;5060876;28;20109;-75
2022/05/19 07:50:36;;;;;;;8.80;5.85;;;20.30;99.90;;;;;;5061951;28;20396;-75
2022/05/19 07:53:02;;;;;;;9.70;6.28;;;20.20;99.90;;;;;;5078480;28;20075;-74
2022/05/19 07:55:27;;;;;;;9.85;6.10;;;20.20;99.90;;;;;;5061863;28;20118;-74
2022/05/19 07:57:53;;;;;;;11.88;5.88;;;20.20;99.90;;;;;;5062008;28;20048;-74
2022/05/19 08:00:19;;;;;;;13.02;6.95;;;20.10;99.90;;;;;;5061824;28;20040;-75
2022/05/19 08:02:46;;;;;;;10.85;6.38;;;20.00;99.90;;;;;;5061720;28;20089;-75
2022/05/19 08:05:12;;;;;;;12.55;6.15;;;19.90;99.90;;;;;;5078179;28;20054;-76
2022/05/19 08:07:38;;;;;;;14.18;7.90;;;19.90;99.90;;;;;;5061555;28;20550;-75
2022/05/19 08:10:23;;;;;;;11.32;7.03;;;19.80;99.90;;;;;;5061572;28;20051;-76
2022/05/19 08:15:36;;;;;;;10.27;7.22;;;19.80;99.90;;;;;;5077966;28;20040;-75
2022/05/19 08:18:05;;;;;;;8.80;6.35;;;19.80;99.90;;;;;;5044560;28;20093;-75
2022/05/19 08:20:31;;;;;;;13.55;7.82;;;19.90;99.90;;;;;;5094858;28;20040;-75
2022/05/19 08:22:57;;;;;;;12.77;6.82;;;19.90;99.90;;;;;;5077902;28;20044;-75
2022/05/19 08:25:27;;;;;;;11.35;6.93;;;19.90;99.90;;;;;;5077918;28;20054;-75
2022/05/19 08:27:56;;;;;;;11.13;6.38;;;19.90;99.90;;;;;;5061317;28;20040;-83
2022/05/19 08:30:22;;;;;;;12.10;7.55;;;19.90;99.90;;;;;;5077855;28;20036;-76
2022/05/19 08:32:48;;;;;;;11.68;6.57;;;19.80;99.90;;;;;;5077895;28;20045;-75
2022/05/19 08:35:14;;;;;;;11.05;6.72;;;19.80;99.90;;;;;;5077864;28;20078;-75
2022/05/19 08:37:39;;;;;;;13.60;7.60;;;19.90;99.90;;;;;;5044486;28;20495;-75
2022/05/19 08:40:06;;;;;;;11.77;6.68;;;19.80;99.90;;;;;;5077930;28;20076;-75
2022/05/19 08:42:36;;;;;;;10.48;7.03;;;19.90;99.90;;;;;;5061239;28;20044;-75
2022/05/19 08:45:11;;;;;;;11.13;7.47;;;19.90;99.90;;;;;;5061186;28;20422;-75
2022/05/19 08:47:37;;;;;;;10.50;7.40;;;19.90;99.90;;;;;;5077607;28;20177;-75
2022/05/19 08:50:12;;;;;;;12.57;7.40;;;19.90;99.90;;;;;;5077899;28;20097;-75
2022/05/19 08:52:45;;;;;;;14.02;7.93;;;19.90;99.90;;;;;;5077518;28;20120;-75
2022/05/19 08:55:15;;;;;;;12.93;7.45;;;19.90;99.90;;;;;;5077477;28;20043;-75
2022/05/19 08:57:49;;;;;;;9.70;6.93;;;20.00;99.90;;;;;;5077414;28;20043;-75
2022/05/19 09:00:24;;;;;;;14.10;8.18;;;20.00;99.90;;;;;;5076951;28;20047;-75
2022/05/19 09:02:56;;;;;;;12.20;7.88;;;20.00;99.90;;;;;;5077520;28;20507;-75
2022/05/19 09:05:52;;;;;;;13.88;7.80;;;20.20;99.90;;;;;;5077266;28;20051;-75
2022/05/19 09:08:32;;;;;;;12.38;7.72;;;20.30;99.90;;;;;;5060556;28;20048;-75
2022/05/19 09:11:17;;;;;;;14.30;7.90;;;20.30;99.90;;;;;;5077054;28;20040;-75
2022/05/19 09:14:09;;;;;;;11.73;8.00;;;20.50;99.90;;;;;;5077124;28;20124;-74
2022/05/19 09:16:40;;;;;;;12.70;7.65;;;20.50;99.90;;;;;;5076268;28;20394;-74
2022/05/19 09:19:26;;;;;;;10.02;7.25;;;20.60;99.90;;;;;;5076878;28;20120;-74
2022/05/19 09:22:07;;;;;;;12.88;8.65;;;20.70;99.90;;;;;;5077228;28;20488;-74
2022/05/19 09:24:33;;;;;;;14.93;7.93;;;20.80;99.90;;;;;;5077294;28;20498;-73
2022/05/19 09:27:01;;;;;;;10.95;7.10;;;20.90;99.90;;;;;;5060231;28;20044;-74
2022/05/19 09:29:32;;;;;;;12.60;7.25;;;20.90;99.90;;;;;;5060155;28;20048;-74
2022/05/19 09:32:34;;;;;;;11.20;8.18;;;21.00;99.90;;;;;;5076659;28;20122;-74
2022/05/19 09:35:18;;;;;;;9.80;7.50;;;21.00;99.90;;;;;;5059998;28;20039;-74
2022/05/19 09:38:08;;;;;;;11.02;7.15;;;21.00;99.90;;;;;;5076727;28;20044;-74
2022/05/19 09:40:37;;;;;;;10.35;6.97;;;21.00;99.90;;;;;;5060226;28;20040;-74
2022/05/19 09:43:09;;;;;;;14.18;6.97;;;21.10;99.90;;;;;;5076864;28;20040;-74
2022/05/19 09:45:42;;;;;;;9.20;6.53;;;21.20;99.90;;;;;;5076881;28;20105;-74
2022/05/19 09:48:09;;;;;;;10.32;7.13;;;21.40;99.90;;;;;;5076434;28;20093;-74
2022/05/19 09:50:47;;;;;;;9.30;6.28;;;21.60;99.90;;;;;;5059819;28;20047;-74
2022/05/19 09:53:17;;;;;;;13.63;7.35;;;21.80;99.90;;;;;;5076314;28;20048;-74
2022/05/19 09:55:43;;;;;;;9.85;6.38;;;21.90;99.90;;;;;;5059849;28;20126;-74
2022/05/19 09:58:14;;;;;;;11.93;7.50;;;22.00;99.90;;;;;;5076254;28;20036;-74
2022/05/19 10:00:51;;;;;;;9.27;6.05;;;22.10;99.90;;;;;;5076490;28;20055;-74
2022/05/19 10:03:28;;;;;;;9.23;5.75;;;22.10;99.90;;;;;;5059476;28;20047;-73
2022/05/19 10:05:57;;;;;;;10.70;7.60;;;22.30;99.90;;;;;;5076359;28;20395;-74
2022/05/19 10:08:59;;;;;;;10.98;7.53;;;22.50;99.90;;;;;;5059624;28;20403;-74
2022/05/19 10:11:29;;;;;;;11.15;7.15;;;22.40;99.90;;;;;;5075193;28;20487;-73
2022/05/19 10:14:14;;;;;;;10.32;7.07;;;22.50;99.90;;;;;;5075858;28;20046;-74
2022/05/19 10:16:51;;;;;;;13.82;7.78;;;22.50;99.90;;;;;;5076119;28;20487;-73
2022/05/19 10:19:30;;;;;;;11.70;7.85;;;22.60;99.90;;;;;;5075549;28;20105;-72
2022/05/19 10:22:37;;;;;;;10.70;7.05;;;22.50;99.90;;;;;;5092629;28;20103;-73
2022/05/19 10:25:03;;;;;;;12.45;7.88;;;22.40;99.90;;;;;;4995341;28;20102;-73
2022/05/19 10:33:59;;;;;;;11.00;6.93;;;22.00;99.90;;;;;;5075441;28;20131;-82
2022/05/19 10:36:37;;;;;;;10.73;7.70;;;21.80;99.90;;;;;;5058897;28;20047;-83
2022/05/19 10:39:28;;;;;;;9.75;7.25;;;21.80;99.90;;;;;;5059081;28;20048;-74
2022/05/19 10:42:05;;;;;;;11.85;7.93;;;21.80;99.90;;;;;;5075397;28;20066;-74
2022/05/19 10:44:50;;;;;;;10.48;7.32;;;21.90;99.90;;;;;;5058750;28;20126;-74
2022/05/19 10:47:38;;;;;;;12.88;7.40;;;22.10;99.90;;;;;;5058537;28;20036;-74
2022/05/19 10:50:14;;;;;;;11.90;7.63;;;22.30;99.90;;;;;;5075547;28;20134;-73
2022/05/19 10:53:02;;;;;;;12.63;7.70;;;22.50;99.90;;;;;;5075165;28;20047;-73
2022/05/19 10:55:56;;;;;;;9.43;7.63;;;22.90;99.90;;;;;;5075469;28;20379;-74
2022/05/19 10:58:35;;;;;;;11.05;6.93;;;23.20;99.90;;;;;;5075218;28;20035;-73
2022/05/19 11:01:31;;;;;;;10.00;7.07;;;23.40;99.90;;;;;;5075052;28;20067;-74
2022/05/19 11:04:15;;;;;;;11.95;8.13;;;23.70;99.90;;;;;;5074983;28;20079;-73
2022/05/19 11:07:05;;;;;;;11.75;8.02;;;23.60;99.90;;;;;;5075040;28;20135;-73
2022/05/19 11:09:48;;;;;;;12.75;7.65;;;23.60;99.90;;;;;;5075071;28;20036;-73
2022/05/19 11:12:45;;;;;;;13.43;7.47;;;23.50;99.90;;;;;;5075107;28;20043;-74
2022/05/19 11:15:42;;;;;;;10.63;7.05;;;23.50;99.90;;;;;;5074902;28;20047;-73
2022/05/19 11:18:32;;;;;;;10.77;6.82;;;23.50;99.90;;;;;;5074802;28;20102;-74
2022/05/19 11:21:13;;;;;;;10.25;6.75;;;23.60;99.90;;;;;;5074796;28;20040;-74
2022/05/19 11:23:51;;;;;;;10.45;7.18;;;23.70;99.90;;;;;;5074483;28;20040;-74
2022/05/19 11:26:38;;;;;;;10.27;6.40;;;23.80;99.90;;;;;;5074897;28;20509;-74
2022/05/19 11:29:06;;;;;;;11.35;6.18;;;23.80;99.90;;;;;;5074631;28;20040;-74
2022/05/19 11:31:39;;;;;;;10.30;6.38;;;23.80;99.90;;;;;;5074977;28;20119;-73
2022/05/19 11:34:37;;;;;;;9.75;5.82;;;23.90;99.90;;;;;;5074887;28;20036;-73
2022/05/19 11:37:11;;;;;;;9.55;5.10;;;24.10;99.90;;;;;;5075017;28;20036;-74
2022/05/19 11:39:47;;;;;;;8.57;5.65;;;24.30;99.90;;;;;;5074777;28;20051;-73
2022/05/19 11:42:26;;;;;;;12.50;6.55;;;24.40;99.90;;;;;;5074969;28;20101;-73
2022/05/19 11:44:52;;;;;;;10.13;5.90;;;24.50;99.90;;;;;;5074937;28;20558;-73
2022/05/19 11:56:09;;;;;;;8.13;4.45;;;25.00;99.90;;;;;;5074549;28;20414;-72
2022/05/19 11:58:37;;;;;;;7.88;3.58;;;25.00;99.90;;;;;;5074644;28;20105;-72
2022/05/19 12:01:23;;;;;;;7.15;4.20;;;25.00;99.90;;;;;;5058383;28;20044;-73
2022/05/19 12:04:15;;;;;;;7.25;4.22;;;25.10;99.90;;;;;;5074433;28;20093;-73
2022/05/19 12:06:49;;;;;;;6.93;3.33;;;25.10;99.90;;;;;;5074555;28;20060;-72
2022/05/19 12:09:34;;;;;;;4.20;3.17;;;25.00;99.90;;;;;;5074422;28;20047;-73
2022/05/19 12:12:22;;;;;;;4.55;3.20;;;25.10;99.90;;;;;;5074296;28;20044;-73
2022/05/19 12:15:03;;;;;;;6.50;3.35;;;25.10;99.90;;;;;;5074651;28;20489;-74
2022/05/19 12:17:37;;;;;;;5.40;2.75;;;25.20;99.90;;;;;;5074220;28;20056;-74
2022/05/19 12:20:38;;;;;;;4.18;3.03;;;25.20;99.90;;;;;;5074633;28;20476;-74
2022/05/19 12:23:30;;;;;;;5.20;3.30;;;25.20;99.90;;;;;;5074556;28;20475;-74
2022/05/19 12:26:20;;;;;;;4.15;2.38;;;25.20;99.90;;;;;;5057612;28;20043;-74
2022/05/19 12:29:11;;;;;;;5.85;2.65;;;25.20;99.90;;;;;;5073706;28;20105;-74
2022/05/19 12:31:59;;;;;;;4.13;2.08;;;25.00;99.90;;;;;;5074038;28;20044;-74
2022/05/19 12:34:36;;;;;;;3.10;1.70;;;25.00;99.90;;;;;;5075803;28;20044;-74
2022/05/19 12:37:35;;;;;;;2.60;1.63;;;24.90;99.90;;;;;;5077662;28;20036;-74
2022/05/19 12:40:28;;;;;;;3.50;1.67;;;24.80;99.90;;;;;;5077902;28;20475;-74
2022/05/19 12:43:15;;;;;;;2.65;1.55;;;24.60;99.90;;;;;;5077542;28;20127;-74
2022/05/19 12:45:53;;;;;;;3.50;1.75;;;24.50;99.90;;;;;;5061046;28;20434;-74
2022/05/19 12:48:21;;;;;;;1.33;1.08;;;24.40;99.90;;;;;;5060848;28;20051;-74
2022/05/19 12:50:51;;;;;;;1.05;0.85;;;24.20;99.90;;;;;;5060758;28;20040;-74
2022/05/19 12:53:23;;;;;;;1.52;1.13;;;24.10;99.90;;;;;;5077304;28;20047;-74
2022/05/19 12:55:53;;;;;;;1.90;1.15;;;24.00;99.90;;;;;;5060549;28;20051;-74
2022/05/19 12:58:42;;;;;;;1.42;0.90;;;23.90;99.90;;;;;;5060966;28;20577;-74
2022/05/19 13:01:37;;;;;;;2.28;1.10;;;23.70;99.90;;;;;;5077196;28;20123;-74
2022/05/19 13:04:28;;;;;;;2.45;1.20;;;23.70;99.90;;;;;;5077565;28;20491;-74
2022/05/19 13:07:15;;;;;;;3.95;1.00;;;23.60;99.90;;;;;;5077450;28;20491;-73
2022/05/19 13:09:51;;;;;;;1.65;1.00;;;23.60;99.90;;;;;;5077249;28;20119;-73
2022/05/19 13:12:22;;;;;;;2.75;1.30;;;23.50;99.90;;;;;;5060450;28;20048;-74
2022/05/19 13:14:57;;;;;;;2.33;1.48;;;23.40;99.90;;;;;;5077350;28;20588;-73
2022/05/19 13:17:34;;;;;;;4.47;1.42;;;23.20;99.90;;;;;;5060208;28;20088;-74
2022/05/19 13:20:02;;;;;;;2.92;1.48;;;23.00;99.90;;;;;;5076779;28;20085;-74
2022/05/19 13:22:32;;;;;;;2.63;1.50;;;22.70;99.90;;;;;;5076829;28;20047;-73